Aidamar — ICSJ — position and weather

sailwx.info

Track history (hours):
 
Tides and Currents Weather Stations Pressure Air Temp Water Temp Dewpoint Dewpoint Depression Visibility Wind Speed Wind Dir Waves Ship Positions

Aidamar

Last reported at 2016-Sep-28 16:33 UTC. Time now 2016-Sep-29 13:37 UTC.
Position N 59°45' E 024°07'.

Length 253 m; draft 7.3 m.

Type: Passenger vessel. MMSI: 247312900.

Date/timePositionNaut miles runAvg speedWind from/ knotsBaromVisibWave heightAir tempDewpointWater temp
2016-Sep-28 16:33N 59°45' E 024°07'1918.0
2016-Sep-28 15:29N 59°55' E 024°41'72 4.5
2016-Sep-27 23:19N 60°00' E 027°05'5615.0
2016-Sep-27 19:33N 60°03' E 028°58'37 7.4
2016-Sep-27 14:33N 59°57' E 030°11'0 0.0
2016-Sep-27 13:32N 59°57' E 030°11'0 0.0
2016-Sep-27 10:33N 59°57' E 030°11'46 4.6
2016-Sep-27 00:34N 60°02' E 028°41'5513.8
2016-Sep-26 20:33N 59°59' E 026°50'1514.9
2016-Sep-26 19:31N 59°56' E 026°20'5413.6
2016-Sep-26 15:32N 59°32' E 024°45'5 2.2
2016-Sep-26 13:25N 59°27' E 024°46'0 0.0
2016-Sep-26 11:31N 59°27' E 024°46'33 3.7
2016-Sep-26 02:33N 59°30' E 023°41'1414.3
2016-Sep-26 01:33N 59°29' E 023°13'1414.4
2016-Sep-26 00:33N 59°25' E 022°46'35014.6
2016-Sep-25 00:34N 55°27' E 014°49'3015.0
2016-Sep-24 22:33N 55°05' E 014°13'1514.8
2016-Sep-24 21:33N 54°59' E 013°50'4515.0
2016-Sep-24 18:33N 54°43' E 012°37'1515.0
2016-Sep-24 17:33N 54°33' E 012°17'1615.7
2016-Sep-24 16:33N 54°19' E 012°06'8 4.0
2016-Sep-24 14:28N 54°11' E 012°06'11 1.0
2016-Sep-24 03:33N 54°21' E 011°59'1511.5
2016-Sep-24 02:15N 54°34' E 012°13'9514.2
2016-Sep-23 19:33N 55°25' E 014°33'2914.6
2016-Sep-23 17:34N 55°39' E 015°18'238 8.2
2016-Sep-22 12:33N 59°19' E 018°06'178 8.9
2016-Sep-21 16:33N 59°42' E 023°53'41 5.1
2016-Sep-21 08:33N 60°09' E 024°55'0 0.0
2016-Sep-21 05:34N 60°09' E 024°55'14612.2
2016-Sep-20 17:32N 59°58' E 029°47'12 1.3
2016-Sep-20 08:15N 59°57' E 030°11'0 0.0
2016-Sep-20 07:16N 59°57' E 030°11'0 0.0
2016-Sep-20 06:30N 59°57' E 030°11'60 8.7
2016-Sep-19 23:33N 60°08' E 028°13'5714.0
2016-Sep-19 19:31N 59°57' E 026°21'4414.6
2016-Sep-19 16:30N 59°44' E 024°58'18 7.6
2016-Sep-19 14:09N 59°27' E 024°46'0 0.0
2016-Sep-19 13:31N 59°27' E 024°46'0 0.0
2016-Sep-19 12:31N 59°27' E 024°46'0 0.0
2016-Sep-19 11:23N 59°27' E 024°46'0 0.0
2016-Sep-19 09:29N 59°27' E 024°46'0 0.0
2016-Sep-19 07:33N 59°27' E 024°46'0 0.0
2016-Sep-19 06:33N 59°27' E 024°46'21 6.8
2016-Sep-19 03:24N 59°30' E 024°04'1214.6
2016-Sep-19 02:33N 59°30' E 023°40'  
Track history (hours):
 
Tides and Currents Weather Stations Pressure Air Temp Water Temp Dewpoint Dewpoint Depression Visibility Wind Speed Wind Dir Waves Ship Positions

Aidamar

Last reported at 2016-Sep-28 16:33 UTC. Time now 2016-Sep-29 13:37 UTC.
Position N 59°45' E 024°07'.

Length 253 m; draft 7.3 m.

Type: Passenger vessel. MMSI: 247312900.

Date/timePositionNaut miles runAvg speedWind from/ knotsBaromVisibWave heightAir tempDewpointWater temp
2016-Sep-28 16:33N 59°45' E 024°07'1918.0
2016-Sep-28 15:29N 59°55' E 024°41'72 4.5
2016-Sep-27 23:19N 60°00' E 027°05'5615.0
2016-Sep-27 19:33N 60°03' E 028°58'37 7.4
2016-Sep-27 14:33N 59°57' E 030°11'0 0.0
2016-Sep-27 13:32N 59°57' E 030°11'0 0.0
2016-Sep-27 10:33N 59°57' E 030°11'46 4.6
2016-Sep-27 00:34N 60°02' E 028°41'5513.8
2016-Sep-26 20:33N 59°59' E 026°50'1514.9
2016-Sep-26 19:31N 59°56' E 026°20'5413.6
2016-Sep-26 15:32N 59°32' E 024°45'5 2.2
2016-Sep-26 13:25N 59°27' E 024°46'0 0.0
2016-Sep-26 11:31N 59°27' E 024°46'33 3.7
2016-Sep-26 02:33N 59°30' E 023°41'1414.3
2016-Sep-26 01:33N 59°29' E 023°13'1414.4
2016-Sep-26 00:33N 59°25' E 022°46'35014.6
2016-Sep-25 00:34N 55°27' E 014°49'3015.0
2016-Sep-24 22:33N 55°05' E 014°13'1514.8
2016-Sep-24 21:33N 54°59' E 013°50'4515.0
2016-Sep-24 18:33N 54°43' E 012°37'1515.0
2016-Sep-24 17:33N 54°33' E 012°17'1615.7
2016-Sep-24 16:33N 54°19' E 012°06'8 4.0
2016-Sep-24 14:28N 54°11' E 012°06'11 1.0
2016-Sep-24 03:33N 54°21' E 011°59'1511.5
2016-Sep-24 02:15N 54°34' E 012°13'9514.2
2016-Sep-23 19:33N 55°25' E 014°33'2914.6
2016-Sep-23 17:34N 55°39' E 015°18'238 8.2
2016-Sep-22 12:33N 59°19' E 018°06'178 8.9
2016-Sep-21 16:33N 59°42' E 023°53'41 5.1
2016-Sep-21 08:33N 60°09' E 024°55'0 0.0
2016-Sep-21 05:34N 60°09' E 024°55'14612.2
2016-Sep-20 17:32N 59°58' E 029°47'12 1.3
2016-Sep-20 08:15N 59°57' E 030°11'0 0.0
2016-Sep-20 07:16N 59°57' E 030°11'0 0.0
2016-Sep-20 06:30N 59°57' E 030°11'60 8.7
2016-Sep-19 23:33N 60°08' E 028°13'5714.0
2016-Sep-19 19:31N 59°57' E 026°21'4414.6
2016-Sep-19 16:30N 59°44' E 024°58'18 7.6
2016-Sep-19 14:09N 59°27' E 024°46'0 0.0
2016-Sep-19 13:31N 59°27' E 024°46'0 0.0
2016-Sep-19 12:31N 59°27' E 024°46'0 0.0
2016-Sep-19 11:23N 59°27' E 024°46'0 0.0
2016-Sep-19 09:29N 59°27' E 024°46'0 0.0
2016-Sep-19 07:33N 59°27' E 024°46'0 0.0
2016-Sep-19 06:33N 59°27' E 024°46'21 6.8
2016-Sep-19 03:24N 59°30' E 024°04'1214.6
2016-Sep-19 02:33N 59°30' E 023°40'  

Dump ship's entire track history